Terminal Aerodrome Forecast
Issued by NWS

Home | Current Version | Previous Version | Text Only | Print | Product List | Glossary On
Versions: 1 2 3 4 5 6 7 8 9 10 11 12
000
FTUS44 KLZK 132300
TAFHRO
TAF
KHRO 132324Z 1400/1424 20008G15KT P6SM SCT040 SCT100
     FM140200 21005KT P6SM VCTS SCT040CB BKN100 PROB30 1409/1415 5SM
      TSRA BKN025CB
     FM141500 33007KT P6SM SCT035 BKN100
     FM141800 36008G15KT P6SM VCTS SCT035CB BKN060 PROB30 1418/1424
      5SM -TSRA BR BKN025CB=

USA.gov is the U.S. government's official web portal to all federal, state and local government web resources and services.